»·PEaware :: N969WR KLAS-KLAX

N969WR :: KLAS-KLAX

FLIGHT INFORMATION

Flight Status: Arrived
Operator: Privately registered:
United States
More flights under this callsign
Pilot: Ion I. (24133)
Aircraft: CANADAIR CL-600 CHALLENGER
(CL60)
More flights by this aircraft type
Origin: KLAS Harry Reid Intl
United States
Destination: KLAX Los Angeles Intl
United States
More flights between these airports :: More routes between these airports
Route: RADYR2 BLAQQ SHTNR ANJLL4
File this flight plan on PilotEdge
Remarks:
Altitude:
(Current/Filed)
28,000ft
Speed:
(Current/Filed)
460kts
Departed: 01-Oct-22 09:45 AM
Arrived: 01-Oct-22 10:26 AM
Distance/Time
Traveled:
205nm/0:41
Distance/Time
To Go:
Arrived

Flight Plot

Page will automatically refresh every two minutes.

Flight plan parsing failed; only flown route is shown


Map Options




Map Legend


Flown Route
Filed Route
Departure Airport
Arrival Airport
Navaid (VOR, NDB)
Fix

Horizontal Profiles

Position Reports

Time Latitude Longitude Heading Altitude Ground
Speed
01-Oct-22 09:11 36.099759 -115.159561 114 2186ft 0kts
01-Oct-22 09:12 36.099759 -115.159561 114 2186ft 0kts
01-Oct-22 09:13 36.099759 -115.159561 114 2186ft 0kts
01-Oct-22 09:14 36.099759 -115.159561 114 2186ft 0kts
01-Oct-22 09:15 36.099759 -115.159561 114 2186ft 0kts
01-Oct-22 09:16 36.099759 -115.159561 114 2186ft 0kts
01-Oct-22 09:17 36.099759 -115.159561 114 2186ft 0kts
01-Oct-22 09:18 36.099759 -115.159561 114 2186ft 0kts
01-Oct-22 09:19 36.099759 -115.159561 114 2186ft 0kts
01-Oct-22 09:20 36.099759 -115.159561 114 2186ft 0kts
01-Oct-22 09:21 36.099759 -115.159561 114 2186ft 0kts
01-Oct-22 09:22 36.099759 -115.159561 114 2186ft 0kts
01-Oct-22 09:23 36.099759 -115.159561 114 2186ft 0kts
01-Oct-22 09:24 36.099759 -115.159561 114 2186ft 0kts
01-Oct-22 09:25 36.099759 -115.159561 114 2186ft 0kts
01-Oct-22 09:26 36.099759 -115.159561 114 2186ft 0kts
01-Oct-22 09:27 36.099759 -115.159561 114 2186ft 0kts
01-Oct-22 09:28 36.099759 -115.159561 114 2186ft 0kts
01-Oct-22 09:29 36.099759 -115.159561 114 2186ft 0kts
01-Oct-22 09:30 36.099759 -115.159561 114 2186ft 0kts
01-Oct-22 09:31 36.099759 -115.159561 114 2186ft 0kts
01-Oct-22 09:32 36.099759 -115.159561 114 2186ft 0kts
01-Oct-22 09:33 36.099759 -115.159561 114 2186ft 0kts
01-Oct-22 09:34 36.099759 -115.159561 114 2186ft 0kts
01-Oct-22 09:35 36.099759 -115.159561 114 2186ft 0kts
01-Oct-22 09:36 36.099759 -115.159561 114 2186ft 0kts
01-Oct-22 09:37 36.099758 -115.159558 114 2186ft 0kts
01-Oct-22 09:38 36.099580 -115.159206 141 2186ft 5kts
01-Oct-22 09:39 36.096655 -115.160553 204 2186ft 16kts
01-Oct-22 09:40 36.091586 -115.163445 205 2186ft 20kts
01-Oct-22 09:41 36.087054 -115.166037 205 2186ft 21kts
01-Oct-22 09:42 36.080847 -115.169604 205 2186ft 27kts
01-Oct-22 09:43 36.078000 -115.169550 92 2186ft 11kts
01-Oct-22 09:44 36.081203 -115.167009 25 2186ft 88kts
01-Oct-22 09:45 36.123505 -115.153705 331 3994ft 199kts
01-Oct-22 09:46 36.123970 -115.221307 249 6996ft 239kts
01-Oct-22 09:47 36.091873 -115.298341 206 10030ft 280kts
01-Oct-22 09:48 36.013871 -115.335908 201 12444ft 335kts
01-Oct-22 09:49 35.920106 -115.379944 195 15067ft 377kts
01-Oct-22 09:50 35.812176 -115.383071 182 17570ft 401kts
01-Oct-22 09:51 35.700091 -115.385663 183 19507ft 410kts
01-Oct-22 09:52 35.583845 -115.387172 179 21988ft 427kts
01-Oct-22 09:53 35.464011 -115.381273 189 24346ft 436kts
01-Oct-22 09:54 35.351624 -115.436175 209 26126ft 440kts
01-Oct-22 09:55 35.241200 -115.504945 209 27405ft 452kts
01-Oct-22 09:56 35.129762 -115.575573 212 27989ft 454kts
01-Oct-22 09:57 35.039884 -115.684849 228 27982ft 461kts
01-Oct-22 09:58 34.951939 -115.798597 228 28002ft 459kts
01-Oct-22 09:59 34.866422 -115.907775 227 28009ft 460kts
01-Oct-22 10:01 34.777901 -116.020095 227 28013ft 460kts
01-Oct-22 10:02 34.689450 -116.132747 227 28016ft 461kts
01-Oct-22 10:03 34.600955 -116.245132 227 28048ft 461kts
01-Oct-22 10:04 34.512230 -116.357444 227 28062ft 461kts
01-Oct-22 10:05 34.423332 -116.469657 228 27580ft 461kts
01-Oct-22 10:06 34.366361 -116.597464 245 25784ft 414kts
01-Oct-22 10:07 34.317268 -116.719884 245 24035ft 395kts
01-Oct-22 10:08 34.269920 -116.838097 244 22325ft 387kts
01-Oct-22 10:09 34.223099 -116.954118 244 20593ft 378kts
01-Oct-22 10:10 34.186921 -117.071114 252 18853ft 369kts
01-Oct-22 10:11 34.155709 -117.187890 251 17166ft 361kts
01-Oct-22 10:12 34.124335 -117.302205 251 15572ft 354kts
01-Oct-22 10:13 34.094383 -117.414778 253 14003ft 346kts
01-Oct-22 10:14 34.065781 -117.521850 246 12543ft 329kts
01-Oct-22 10:15 34.029129 -117.622129 245 11091ft 318kts
01-Oct-22 10:16 34.001727 -117.716665 263 9794ft 298kts
01-Oct-22 10:17 33.994056 -117.813067 262 8483ft 296kts
01-Oct-22 10:18 33.984768 -117.910905 262 7174ft 291kts
01-Oct-22 10:19 33.975364 -118.006450 262 5897ft 285kts
01-Oct-22 10:20 33.966368 -118.097219 262 4623ft 276kts
01-Oct-22 10:21 33.957916 -118.181355 262 3340ft 248kts
01-Oct-22 10:22 33.950351 -118.256653 263 2168ft 216kts
01-Oct-22 10:23 33.943451 -118.321597 262 1278ft 167kts
01-Oct-22 10:24 33.938749 -118.369135 266 397ft 141kts
01-Oct-22 10:24 33.935694 -118.398782 262 118ft 42kts
01-Oct-22 10:25 33.934263 -118.401677 115 122ft 0kts
01-Oct-22 10:27 33.934511 -118.398476 82 118ft 18kts
01-Oct-22 10:28 33.934356 -118.393945 205 111ft 4kts
01-Oct-22 10:28 33.933803 -118.393851 0 111ft 0kts
01-Oct-22 10:29 33.933803 -118.393851 1 111ft 0kts
01-Oct-22 10:30 33.933803 -118.393851 1 111ft 0kts
01-Oct-22 10:31 33.933803 -118.393851 1 111ft 0kts
01-Oct-22 10:33 33.933803 -118.393851 1 111ft 0kts
01-Oct-22 10:33 33.933803 -118.393851 1 111ft 0kts
01-Oct-22 10:34 33.933803 -118.393851 1 111ft 0kts
01-Oct-22 10:35 33.933803 -118.393851 1 111ft 0kts
01-Oct-22 10:36 33.933803 -118.393851 1 111ft 0kts

Navigation Log

Ident Type
Flight plan parsing failed, navigation log unavailable